Decoded Metar for KDVP (SLAYTON in MN, USA) (IATA:DVP) | Meteo·Mobile Aviation Weather
aviador You're here:

KDVP Decoded Metar

SLAYTON in MN, USA
Report Time2019-02-17 15:59:00
UTC Time2019-02-17 16:53:23
Flight Rules mvfr MVFR
Wind030° at 09 kt
W.Decomp.*RWY 35: 7.3 kt HW 5.3 kt RCW
W.Rank030° ranks 30
Current wind is above 030° avg. (6.8)
Visibility4828 m
Phenomena:Light Snow
Clouds:Overcast 015 Hf
Expected CloudBase > 400 ft AGL from Temp-Dew spread
Ceiling1,500 ft
Temp-10°C (ISA -22)
Dew Point-11°C (92% RH)
AAT-16.4°C
QNH1014 hPa
Density Alt-1,079 ft
Elevation1,624 ft
Report Wrong Elevation
Raw Report
KDVP 171559Z AUTO 03009KT 3SM -SN OVC015 M10/M11 A2993 RMK AO2=

Extra information for KDVP:More info

Metar Taf Metar & Taf Last 4 Metars F.Rules Stats Wind Profile Meteogram Temp Stats Airport Information Weather charts Add Link Nearby VenuesMetar ALERT Operation Metar Decoded Social comments

AIRNAV info for KDVP